Time;durP1;ratioP1;P1;durP2;ratioP2;P2;SDS_P1;SDS_P2;PMS_P1;PMS_P2;Temp;Humidity;BMP_temperature;BMP_pressure;BME280_temperature;BME280_humidity;BME280_pressure;Samples;Min_cycle;Max_cycle;Signal;HPM_P1;HPM_P2
2021/03/03 00:00:18;;;;;;;14.50;9.57;;;;;;;;;;4999643;28;20197;-37
2021/03/03 00:03:05;;;;;;;14.07;10.67;;;;;;;;;;4999331;28;20336;-34
2021/03/03 00:05:52;;;;;;;11.80;9.57;;;;;;;;;;4999852;28;20218;-34
2021/03/03 00:08:38;;;;;;;14.37;9.27;;;;;;;;;;4999294;28;20214;-34
2021/03/03 00:11:24;;;;;;;13.87;9.90;;;;;;;;;;4999459;28;20302;-36
2021/03/03 00:14:10;;;;;;;13.10;9.33;;;;;;;;;;4999707;28;20207;-35
2021/03/03 00:16:57;;;;;;;12.33;8.77;;;;;;;;;;4998907;28;20218;-33
2021/03/03 00:19:47;;;;;;;16.77;9.87;;;;;;;;;;4999326;28;20198;-33
2021/03/03 00:22:32;;;;;;;14.13;8.97;;;;;;;;;;4998942;28;20206;-37
2021/03/03 00:25:21;;;;;;;14.43;9.10;;;;;;;;;;4999013;28;20307;-33
2021/03/03 00:28:06;;;;;;;15.30;9.90;;;;;;;;;;4999287;28;20319;-34
2021/03/03 00:30:52;;;;;;;13.10;9.10;;;;;;;;;;4999315;28;20685;-36
2021/03/03 00:33:39;;;;;;;13.30;9.10;;;;;;;;;;4999284;28;20280;-33
2021/03/03 00:36:25;;;;;;;14.27;9.47;;;;;;;;;;4999147;28;20244;-36
2021/03/03 00:39:11;;;;;;;17.97;9.53;;;;;;;;;;4998888;28;20610;-33
2021/03/03 00:41:57;;;;;;;15.97;9.30;;;;;;;;;;4999040;28;20199;-35
2021/03/03 00:44:43;;;;;;;13.63;9.23;;;;;;;;;;4998890;28;20204;-37
2021/03/03 00:47:29;;;;;;;12.07;8.83;;;;;;;;;;4999501;28;20203;-33
2021/03/03 00:50:16;;;;;;;10.47;7.80;;;;;;;;;;4998662;28;20250;-36
2021/03/03 00:53:02;;;;;;;14.77;8.90;;;;;;;;;;4998606;28;20206;-34
2021/03/03 00:55:49;;;;;;;15.77;9.77;;;;;;;;;;4998797;28;20198;-38
2021/03/03 00:58:38;;;;;;;12.93;8.50;;;;;;;;;;4998505;28;20258;-36
2021/03/03 01:01:24;;;;;;;12.57;9.30;;;;;;;;;;4998664;28;20199;-35
2021/03/03 01:04:10;;;;;;;12.43;9.87;;;;;;;;;;4998260;28;20206;-32
2021/03/03 01:06:56;;;;;;;17.23;9.53;;;;;;;;;;4998256;28;20238;-35
2021/03/03 01:09:43;;;;;;;14.70;10.17;;;;;;;;;;4998447;28;20376;-37
2021/03/03 01:12:28;;;;;;;14.20;9.70;;;;;;;;;;4997925;28;20521;-33
2021/03/03 01:15:17;;;;;;;12.93;9.03;;;;;;;;;;4998374;28;20207;-36
2021/03/03 01:18:03;;;;;;;13.27;9.53;;;;;;;;;;4997955;28;20604;-34
2021/03/03 01:20:49;;;;;;;13.50;9.17;;;;;;;;;;4998675;28;20195;-32
2021/03/03 01:23:37;;;;;;;12.40;9.93;;;;;;;;;;4998236;28;20571;-37
2021/03/03 01:26:25;;;;;;;15.67;9.97;;;;;;;;;;4998248;28;20202;-35
2021/03/03 01:29:14;;;;;;;11.97;8.77;;;;;;;;;;4997522;28;20203;-35
2021/03/03 01:32:00;;;;;;;13.03;9.33;;;;;;;;;;4998361;28;20203;-32
2021/03/03 01:34:46;;;;;;;11.80;8.37;;;;;;;;;;4997565;28;20268;-34
2021/03/03 01:37:32;;;;;;;13.37;9.60;;;;;;;;;;4998069;28;20210;-33
2021/03/03 01:40:19;;;;;;;11.17;8.93;;;;;;;;;;4997593;28;20218;-34
2021/03/03 01:43:06;;;;;;;10.87;8.43;;;;;;;;;;4997780;28;20198;-33
2021/03/03 01:45:52;;;;;;;12.97;9.60;;;;;;;;;;4997421;28;20203;-35
2021/03/03 01:48:38;;;;;;;16.90;10.30;;;;;;;;;;4998040;28;20198;-37
2021/03/03 01:51:23;;;;;;;16.97;10.53;;;;;;;;;;4997561;28;20222;-35
2021/03/03 01:54:12;;;;;;;16.70;10.37;;;;;;;;;;4998058;28;20505;-36
2021/03/03 01:56:59;;;;;;;12.37;9.27;;;;;;;;;;4997699;28;20206;-35
2021/03/03 01:59:46;;;;;;;15.37;11.23;;;;;;;;;;4997599;28;20198;-35
2021/03/03 02:02:35;;;;;;;16.07;10.70;;;;;;;;;;4997416;28;20545;-36
2021/03/03 02:05:21;;;;;;;18.53;10.80;;;;;;;;;;4997990;28;20207;-35
2021/03/03 02:08:10;;;;;;;20.87;11.13;;;;;;;;;;4997316;28;20228;-37
2021/03/03 02:10:58;;;;;;;16.80;10.53;;;;;;;;;;4996598;28;20365;-35
2021/03/03 02:13:48;;;;;;;14.47;10.07;;;;;;;;;;4957956;29;20204;-35
2021/03/03 02:16:35;;;;;;;13.97;10.50;;;;;;;;;;4958285;29;20239;-33
2021/03/03 02:19:23;;;;;;;15.13;10.30;;;;;;;;;;4958193;29;20360;-38
2021/03/03 02:22:11;;;;;;;14.93;9.77;;;;;;;;;;4958100;29;20649;-37
2021/03/03 02:25:03;;;;;;;15.73;9.63;;;;;;;;;;4958134;29;20223;-37
2021/03/03 02:27:51;;;;;;;18.37;12.30;;;;;;;;;;4958524;29;20222;-34
2021/03/03 02:30:37;;;;;;;21.37;12.70;;;;;;;;;;4958423;29;20235;-37
2021/03/03 02:33:26;;;;;;;18.53;11.77;;;;;;;;;;4958820;29;20208;-33
2021/03/03 02:36:13;;;;;;;15.77;11.17;;;;;;;;;;4958572;29;20207;-34
2021/03/03 02:38:59;;;;;;;18.70;12.40;;;;;;;;;;4958569;29;20347;-32
2021/03/03 02:41:46;;;;;;;16.30;10.23;;;;;;;;;;4961002;29;20354;-38
2021/03/03 02:44:34;;;;;;;14.93;10.20;;;;;;;;;;4962170;29;20199;-34
2021/03/03 02:47:20;;;;;;;13.00;9.47;;;;;;;;;;4962510;29;20203;-34
2021/03/03 02:50:07;;;;;;;14.33;9.53;;;;;;;;;;4962355;29;20286;-36
2021/03/03 02:52:53;;;;;;;13.07;9.20;;;;;;;;;;4962186;29;20200;-35
2021/03/03 02:55:40;;;;;;;14.27;9.53;;;;;;;;;;4962270;29;20203;-36
2021/03/03 02:58:26;;;;;;;14.93;9.37;;;;;;;;;;4962175;29;20208;-37
2021/03/03 03:01:14;;;;;;;15.63;10.80;;;;;;;;;;4961993;29;20259;-35
2021/03/03 03:04:01;;;;;;;14.40;9.33;;;;;;;;;;4962294;29;20457;-34
2021/03/03 03:06:48;;;;;;;19.80;9.00;;;;;;;;;;4962662;29;20204;-35
2021/03/03 03:09:34;;;;;;;13.07;9.53;;;;;;;;;;4962038;29;20203;-34
2021/03/03 03:12:21;;;;;;;13.87;9.30;;;;;;;;;;4978860;28;20234;-35
2021/03/03 03:15:07;;;;;;;13.60;9.93;;;;;;;;;;5000599;28;20198;-34
2021/03/03 03:17:56;;;;;;;16.43;10.43;;;;;;;;;;5000825;28;20206;-33
2021/03/03 03:20:42;;;;;;;16.83;10.00;;;;;;;;;;5000411;28;20195;-36
2021/03/03 03:23:29;;;;;;;13.60;9.23;;;;;;;;;;5000571;28;20224;-34
2021/03/03 03:26:16;;;;;;;15.03;9.23;;;;;;;;;;5003364;28;20213;-37
2021/03/03 03:29:02;;;;;;;15.37;8.70;;;;;;;;;;5020047;28;20201;-35
2021/03/03 03:31:48;;;;;;;12.93;9.20;;;;;;;;;;5019985;28;20367;-31
2021/03/03 03:34:36;;;;;;;13.77;8.77;;;;;;;;;;5020283;28;20189;-34
2021/03/03 03:37:23;;;;;;;12.13;9.20;;;;;;;;;;5019839;28;20213;-33
2021/03/03 03:40:10;;;;;;;14.93;7.97;;;;;;;;;;5020018;28;20258;-32
2021/03/03 03:42:57;;;;;;;16.23;9.33;;;;;;;;;;5019845;28;20213;-35
2021/03/03 03:45:43;;;;;;;16.40;9.17;;;;;;;;;;5019725;28;20284;-34
2021/03/03 03:48:29;;;;;;;14.97;10.57;;;;;;;;;;5016999;28;20197;-33
2021/03/03 03:51:16;;;;;;;17.53;10.33;;;;;;;;;;5019031;28;20241;-32
2021/03/03 03:54:02;;;;;;;16.00;10.40;;;;;;;;;;5019640;28;20288;-37
2021/03/03 03:56:48;;;;;;;15.67;10.40;;;;;;;;;;5018971;28;20221;-33
2021/03/03 03:59:37;;;;;;;17.63;10.97;;;;;;;;;;5019009;28;20344;-37
2021/03/03 04:02:22;;;;;;;17.83;8.47;;;;;;;;;;5019191;28;20202;-34
2021/03/03 04:05:09;;;;;;;15.67;10.17;;;;;;;;;;5019288;28;20202;-36
2021/03/03 04:07:56;;;;;;;16.90;10.60;;;;;;;;;;5018557;28;20218;-37
2021/03/03 04:10:42;;;;;;;17.27;10.97;;;;;;;;;;5019276;28;20244;-34
2021/03/03 04:13:29;;;;;;;17.27;11.50;;;;;;;;;;5010708;28;20221;-36
2021/03/03 04:16:15;;;;;;;18.23;15.47;;;;;;;;;;5019262;28;20230;-35
2021/03/03 04:19:01;;;;;;;9.13;7.03;;;;;;;;;;4999860;28;20466;-32
2021/03/03 04:21:47;;;;;;;17.30;10.23;;;;;;;;;;5010606;28;20202;-37
2021/03/03 04:24:33;;;;;;;17.90;11.10;;;;;;;;;;5019425;28;20233;-36
2021/03/03 04:27:20;;;;;;;20.30;11.77;;;;;;;;;;5019021;28;20467;-36
2021/03/03 04:30:08;;;;;;;21.27;11.93;;;;;;;;;;5018307;28;20292;-37
2021/03/03 04:32:54;;;;;;;19.30;11.17;;;;;;;;;;5018585;28;20209;-34
2021/03/03 04:35:40;;;;;;;17.20;10.50;;;;;;;;;;5018717;28;20197;-36
2021/03/03 04:38:27;;;;;;;16.30;10.27;;;;;;;;;;5018556;28;20495;-34
2021/03/03 04:41:13;;;;;;;16.40;10.87;;;;;;;;;;5018546;28;20201;-36
2021/03/03 04:43:59;;;;;;;1.37;1.37;;;;;;;;;;5018871;28;20300;-35
2021/03/03 04:46:45;;;;;;;17.03;10.63;;;;;;;;;;5017317;28;20202;-33
2021/03/03 04:49:32;;;;;;;19.87;10.87;;;;;;;;;;5003636;28;20214;-36
2021/03/03 04:52:17;;;;;;;20.53;11.67;;;;;;;;;;5018361;28;20197;-37
2021/03/03 04:55:05;;;;;;;20.67;11.30;;;;;;;;;;5018942;28;20197;-34
2021/03/03 04:57:52;;;;;;;17.47;10.73;;;;;;;;;;5018256;28;20302;-35
2021/03/03 05:00:38;;;;;;;16.33;10.63;;;;;;;;;;5017639;28;20194;-38
2021/03/03 05:03:27;;;;;;;18.07;10.20;;;;;;;;;;5016985;28;20468;-35
2021/03/03 05:06:14;;;;;;;15.50;11.03;;;;;;;;;;5018016;28;20481;-32
2021/03/03 05:08:59;;;;;;;15.80;10.13;;;;;;;;;;5017937;28;20197;-32
2021/03/03 05:11:46;;;;;;;15.27;10.30;;;;;;;;;;5017128;28;20335;-37
2021/03/03 05:14:33;;;;;;;16.20;10.80;;;;;;;;;;5017820;28;20214;-37
2021/03/03 05:17:20;;;;;;;15.97;11.23;;;;;;;;;;5017335;28;20201;-34
2021/03/03 05:20:06;;;;;;;19.43;11.57;;;;;;;;;;4998311;28;20879;-35
2021/03/03 05:22:52;;;;;;;17.20;11.57;;;;;;;;;;5012840;28;20385;-35
2021/03/03 05:25:38;;;;;;;17.83;11.03;;;;;;;;;;5017697;28;20593;-35
2021/03/03 05:28:24;;;;;;;17.17;11.33;;;;;;;;;;5017370;28;20202;-35
2021/03/03 05:31:11;;;;;;;19.53;10.33;;;;;;;;;;5017734;28;20230;-32
2021/03/03 05:34:16;;;;;;;16.00;10.67;;;;;;;;;;5017785;28;20206;-36
2021/03/03 05:37:02;;;;;;;22.93;11.90;;;;;;;;;;5017413;28;20250;-35
2021/03/03 05:39:48;;;;;;;17.97;11.07;;;;;;;;;;5017584;28;20205;-37
2021/03/03 05:42:35;;;;;;;20.03;11.37;;;;;;;;;;5018050;28;20952;-37
2021/03/03 05:45:20;;;;;;;18.37;10.90;;;;;;;;;;5017643;28;20313;-36
2021/03/03 05:48:10;;;;;;;22.63;10.47;;;;;;;;;;5017219;28;20197;-36
2021/03/03 05:50:57;;;;;;;21.23;11.60;;;;;;;;;;5016875;28;20502;-34
2021/03/03 05:53:43;;;;;;;16.73;10.70;;;;;;;;;;5016720;28;20197;-37
2021/03/03 05:56:29;;;;;;;17.47;10.77;;;;;;;;;;5017361;28;20660;-33
2021/03/03 05:59:16;;;;;;;19.43;11.03;;;;;;;;;;5016004;28;20202;-34
2021/03/03 06:02:05;;;;;;;22.17;13.10;;;;;;;;;;5017287;28;20205;-35
2021/03/03 06:04:53;;;;;;;21.73;12.17;;;;;;;;;;5016400;28;20342;-39
2021/03/03 06:07:40;;;;;;;17.30;11.30;;;;;;;;;;5016130;28;20202;-38
2021/03/03 06:10:26;;;;;;;19.63;11.73;;;;;;;;;;5016438;28;20226;-35
2021/03/03 06:13:12;;;;;;;18.10;10.33;;;;;;;;;;5016127;28;20241;-34
2021/03/03 06:15:58;;;;;;;21.17;11.73;;;;;;;;;;5016330;28;20221;-36
2021/03/03 06:18:47;;;;;;;18.60;11.60;;;;;;;;;;5016782;28;20201;-36
2021/03/03 06:21:36;;;;;;;19.63;11.57;;;;;;;;;;5016289;28;20592;-36
2021/03/03 06:24:33;;;;;;;18.20;11.60;;;;;;;;;;5016516;28;20651;-38
2021/03/03 06:27:21;;;;;;;19.20;11.60;;;;;;;;;;5016624;28;20206;-39
2021/03/03 06:30:08;;;;;;;24.00;12.87;;;;;;;;;;5016378;28;20292;-41
2021/03/03 06:32:58;;;;;;;23.07;12.30;;;;;;;;;;5016437;28;20201;-38
2021/03/03 06:35:47;;;;;;;25.73;13.53;;;;;;;;;;5016961;28;20274;-35
2021/03/03 06:38:33;;;;;;;24.87;14.97;;;;;;;;;;5016296;28;20202;-40
2021/03/03 06:41:37;;;;;;;22.77;13.67;;;;;;;;;;5016485;28;20209;-39
2021/03/03 06:44:24;;;;;;;36.07;19.30;;;;;;;;;;5016611;28;20235;-37
2021/03/03 06:47:10;;;;;;;33.87;18.03;;;;;;;;;;5016959;28;20194;-37
2021/03/03 06:50:12;;;;;;;32.70;17.67;;;;;;;;;;5016139;28;20340;-38
2021/03/03 06:52:58;;;;;;;49.57;26.37;;;;;;;;;;5016154;28;20197;-37
2021/03/03 06:55:45;;;;;;;44.63;24.20;;;;;;;;;;5012168;28;20202;-35
2021/03/03 06:58:33;;;;;;;29.87;15.50;;;;;;;;;;4996124;28;20533;-39
2021/03/03 07:01:38;;;;;;;32.67;18.80;;;;;;;;;;4996799;28;20195;-37
2021/03/03 07:04:25;;;;;;;32.47;14.77;;;;;;;;;;5002874;28;20305;-38
2021/03/03 07:07:15;;;;;;;35.80;16.07;;;;;;;;;;5015839;28;20208;-40
2021/03/03 07:10:04;;;;;;;25.10;15.63;;;;;;;;;;5016925;28;20290;-39
2021/03/03 07:12:53;;;;;;;32.20;17.33;;;;;;;;;;5015883;28;20333;-41
2021/03/03 07:15:41;;;;;;;25.83;15.23;;;;;;;;;;5015442;28;20722;-39
2021/03/03 07:18:34;;;;;;;32.67;17.87;;;;;;;;;;5015914;28;20208;-40
2021/03/03 07:21:35;;;;;;;29.67;17.27;;;;;;;;;;5016476;28;20201;-37
2021/03/03 07:24:22;;;;;;;30.17;15.73;;;;;;;;;;5016048;28;20223;-39
2021/03/03 07:27:09;;;;;;;24.30;15.03;;;;;;;;;;5017030;28;20201;-38
2021/03/03 07:29:56;;;;;;;24.80;14.47;;;;;;;;;;5019933;28;20201;-36
2021/03/03 07:32:43;;;;;;;24.53;13.83;;;;;;;;;;5017839;28;20226;-39
2021/03/03 07:35:47;;;;;;;24.93;14.47;;;;;;;;;;5019800;28;20596;-38
2021/03/03 07:38:33;;;;;;;25.97;15.57;;;;;;;;;;5019366;28;20252;-37
2021/03/03 07:41:19;;;;;;;30.37;15.63;;;;;;;;;;5018567;28;20227;-38
2021/03/03 07:44:07;;;;;;;26.13;14.70;;;;;;;;;;5019130;28;20353;-39
2021/03/03 07:46:58;;;;;;;23.40;15.73;;;;;;;;;;5018495;28;20198;-38
2021/03/03 07:49:48;;;;;;;20.80;13.27;;;;;;;;;;5018249;28;20201;-40
2021/03/03 07:52:34;;;;;;;19.87;10.23;;;;;;;;;;5018901;28;20221;-34
2021/03/03 07:55:20;;;;;;;17.37;9.90;;;;;;;;;;5018546;28;20206;-35
2021/03/03 07:58:06;;;;;;;18.60;9.57;;;;;;;;;;5018682;28;20197;-33
2021/03/03 08:00:59;;;;;;;16.03;9.83;;;;;;;;;;5020476;28;20292;-39
2021/03/03 08:04:09;;;;;;;16.03;9.43;;;;;;;;;;5021831;28;20202;-38
2021/03/03 08:07:13;;;;;;;15.43;8.93;;;;;;;;;;5011915;28;20668;-38
2021/03/03 08:10:21;;;;;;;16.67;9.40;;;;;;;;;;4999338;28;20220;-35
2021/03/03 08:13:08;;;;;;;17.83;8.60;;;;;;;;;;4999046;28;20676;-36
2021/03/03 08:15:57;;;;;;;17.03;9.13;;;;;;;;;;4999608;28;20261;-34
2021/03/03 08:18:51;;;;;;;16.27;9.40;;;;;;;;;;4999012;28;20599;-37
2021/03/03 08:21:47;;;;;;;15.87;9.80;;;;;;;;;;4998467;28;20289;-46
2021/03/03 08:24:40;;;;;;;15.80;9.70;;;;;;;;;;4998600;28;20212;-32
2021/03/03 08:27:38;;;;;;;16.70;9.37;;;;;;;;;;4998832;28;20204;-36
2021/03/03 08:30:26;;;;;;;17.83;8.13;;;;;;;;;;4998296;28;20196;-35
2021/03/03 08:33:29;;;;;;;20.10;9.03;;;;;;;;;;4998356;28;20486;-34
2021/03/03 08:37:01;;;;;;;16.40;8.87;;;;;;;;;;5015474;28;20498;-36
2021/03/03 08:39:48;;;;;;;18.03;8.83;;;;;;;;;;5017987;28;20310;-35
2021/03/03 08:42:36;;;;;;;14.23;8.23;;;;;;;;;;5018204;28;20402;-32
2021/03/03 08:45:27;;;;;;;14.50;8.77;;;;;;;;;;5018368;28;20198;-34
2021/03/03 08:48:18;;;;;;;18.30;9.87;;;;;;;;;;5018214;28;20194;-38
2021/03/03 08:51:20;;;;;;;14.87;9.40;;;;;;;;;;5018148;28;20229;-37
2021/03/03 08:54:08;;;;;;;13.00;8.57;;;;;;;;;;5017952;28;20488;-36
2021/03/03 08:56:57;;;;;;;16.83;8.43;;;;;;;;;;5017676;28;20237;-37
2021/03/03 08:59:46;;;;;;;12.73;8.13;;;;;;;;;;5017232;28;20206;-34
2021/03/03 09:02:36;;;;;;;18.10;9.53;;;;;;;;;;5017344;28;20213;-34
2021/03/03 09:05:23;;;;;;;15.57;9.00;;;;;;;;;;5017776;28;20201;-37
2021/03/03 09:08:18;;;;;;;16.77;9.17;;;;;;;;;;5017220;28;20485;-37
2021/03/03 09:11:14;;;;;;;16.60;9.43;;;;;;;;;;5017921;28;20508;-35
2021/03/03 09:14:01;;;;;;;17.03;9.20;;;;;;;;;;4978158;28;20199;-33
2021/03/03 09:16:54;;;;;;;18.27;9.57;;;;;;;;;;4978165;28;20198;-38
2021/03/03 09:19:42;;;;;;;22.53;9.50;;;;;;;;;;4978474;28;20208;-37
2021/03/03 09:22:30;;;;;;;16.30;9.70;;;;;;;;;;4978240;28;20199;-37
2021/03/03 09:25:17;;;;;;;15.33;9.63;;;;;;;;;;4978115;28;20665;-38
2021/03/03 09:28:08;;;;;;;15.07;9.63;;;;;;;;;;4974095;28;20211;-33
2021/03/03 09:30:58;;;;;;;19.40;10.20;;;;;;;;;;4976840;28;20227;-38
2021/03/03 09:33:47;;;;;;;17.80;9.90;;;;;;;;;;4978024;28;20203;-37
2021/03/03 09:36:38;;;;;;;18.13;9.53;;;;;;;;;;4978129;28;20221;-36
2021/03/03 09:39:29;;;;;;;16.67;10.03;;;;;;;;;;4977497;28;20303;-35
2021/03/03 09:42:23;;;;;;;18.43;9.97;;;;;;;;;;4977765;28;20610;-38
2021/03/03 09:45:12;;;;;;;16.03;10.00;;;;;;;;;;4977748;28;20351;-36
2021/03/03 09:48:00;;;;;;;21.73;10.67;;;;;;;;;;4977986;28;20208;-35
2021/03/03 09:50:49;;;;;;;19.37;10.67;;;;;;;;;;4977279;28;20217;-36
2021/03/03 09:53:39;;;;;;;19.73;10.60;;;;;;;;;;4962074;28;20304;-39
2021/03/03 09:56:30;;;;;;;18.57;10.73;;;;;;;;;;4961778;28;20347;-38
2021/03/03 09:59:18;;;;;;;19.37;11.50;;;;;;;;;;4958903;29;20266;-38
2021/03/03 10:02:05;;;;;;;18.43;10.97;;;;;;;;;;4959138;28;20250;-41
2021/03/03 10:04:53;;;;;;;18.30;10.93;;;;;;;;;;4959434;28;20223;-42
2021/03/03 10:07:39;;;;;;;20.10;11.07;;;;;;;;;;4959111;28;20295;-41
2021/03/03 10:10:28;;;;;;;20.40;11.03;;;;;;;;;;4958195;29;20226;-40
2021/03/03 10:13:19;;;;;;;20.57;12.73;;;;;;;;;;4989139;28;20253;-37
2021/03/03 10:16:14;;;;;;;19.17;11.97;;;;;;;;;;4997321;28;20281;-39
2021/03/03 10:19:02;;;;;;;22.13;12.03;;;;;;;;;;4996871;28;20230;-38
2021/03/03 10:21:48;;;;;;;18.60;12.20;;;;;;;;;;4997124;28;20200;-40
2021/03/03 10:24:34;;;;;;;23.17;12.37;;;;;;;;;;4999101;28;20228;-38
2021/03/03 10:27:20;;;;;;;22.80;13.67;;;;;;;;;;5016850;28;20202;-41
2021/03/03 10:30:20;;;;;;;25.27;13.57;;;;;;;;;;5016567;28;20307;-36
2021/03/03 10:33:06;;;;;;;38.33;15.13;;;;;;;;;;5016635;28;20717;-36
2021/03/03 10:35:54;;;;;;;26.37;13.83;;;;;;;;;;5016519;28;20209;-35
2021/03/03 10:38:45;;;;;;;21.87;12.60;;;;;;;;;;5016044;28;20205;-40
2021/03/03 10:41:34;;;;;;;29.60;14.27;;;;;;;;;;5016227;28;20194;-40
2021/03/03 10:44:39;;;;;;;23.83;13.13;;;;;;;;;;5016557;28;20222;-34
2021/03/03 10:47:41;;;;;;;25.30;14.07;;;;;;;;;;5016368;28;20198;-40
2021/03/03 10:50:50;;;;;;;24.37;14.10;;;;;;;;;;5015934;28;20685;-39
2021/03/03 10:53:47;;;;;;;24.43;13.97;;;;;;;;;;5015659;28;20202;-43
2021/03/03 10:56:39;;;;;;;22.97;13.63;;;;;;;;;;5016602;28;20198;-40
2021/03/03 10:59:26;;;;;;;23.47;15.10;;;;;;;;;;5014652;28;20471;-36
2021/03/03 11:02:24;;;;;;;25.27;14.10;;;;;;;;;;5017490;28;20493;-39
2021/03/03 11:05:20;;;;;;;21.73;13.93;;;;;;;;;;5020101;28;20205;-42
2021/03/03 11:08:22;;;;;;;20.27;13.37;;;;;;;;;;5020446;28;20259;-42
2021/03/03 11:11:12;;;;;;;23.57;14.43;;;;;;;;;;5020291;28;20517;-42
2021/03/03 11:13:58;;;;;;;25.20;14.60;;;;;;;;;;5019822;28;20286;-39
2021/03/03 11:16:44;;;;;;;25.53;14.97;;;;;;;;;;5019776;28;20285;-41
2021/03/03 11:19:31;;;;;;;27.23;15.03;;;;;;;;;;5019885;28;20242;-40
2021/03/03 11:22:20;;;;;;;29.13;15.70;;;;;;;;;;5019910;28;20201;-41
2021/03/03 11:25:06;;;;;;;28.67;15.00;;;;;;;;;;5020172;28;20288;-40
2021/03/03 11:27:53;;;;;;;25.53;15.97;;;;;;;;;;5019893;28;20226;-41
2021/03/03 11:30:39;;;;;;;30.70;15.93;;;;;;;;;;5016856;28;20206;-41
2021/03/03 11:33:25;;;;;;;25.27;15.00;;;;;;;;;;5020126;28;20494;-39
2021/03/03 11:36:11;;;;;;;26.33;16.67;;;;;;;;;;5017516;28;20218;-41
2021/03/03 11:38:57;;;;;;;23.37;14.53;;;;;;;;;;5019598;28;20222;-38
2021/03/03 11:41:43;;;;;;;29.30;16.33;;;;;;;;;;5019705;28;20194;-39
2021/03/03 11:44:31;;;;;;;22.93;15.50;;;;;;;;;;5017667;28;20234;-40
2021/03/03 11:47:19;;;;;;;26.80;16.33;;;;;;;;;;5019762;28;20206;-39
2021/03/03 11:50:09;;;;;;;27.60;17.63;;;;;;;;;;5019322;28;20210;-40
2021/03/03 11:52:55;;;;;;;26.53;16.37;;;;;;;;;;5018204;28;20226;-36
2021/03/03 11:55:43;;;;;;;26.03;18.07;;;;;;;;;;5018394;28;20248;-40
2021/03/03 11:58:32;;;;;;;30.73;18.83;;;;;;;;;;5017087;28;20210;-38
2021/03/03 12:01:23;;;;;;;27.73;17.20;;;;;;;;;;5018911;28;20603;-39
2021/03/03 12:04:09;;;;;;;32.97;18.97;;;;;;;;;;5018580;28;20209;-41
2021/03/03 12:06:55;;;;;;;35.77;19.97;;;;;;;;;;5019232;28;20201;-36
2021/03/03 12:09:42;;;;;;;27.13;18.90;;;;;;;;;;5018801;28;20206;-40
2021/03/03 12:12:32;;;;;;;32.43;19.17;;;;;;;;;;5018285;28;20237;-40
2021/03/03 12:15:18;;;;;;;36.27;21.00;;;;;;;;;;5018303;28;20261;-39
2021/03/03 12:18:06;;;;;;;39.13;21.57;;;;;;;;;;5018277;28;20202;-38
2021/03/03 12:20:53;;;;;;;39.07;23.53;;;;;;;;;;5018512;28;20203;-37
2021/03/03 12:23:38;;;;;;;38.90;22.63;;;;;;;;;;5016360;28;20278;-41
2021/03/03 12:26:25;;;;;;;34.33;21.93;;;;;;;;;;5018643;28;20726;-40
2021/03/03 12:29:11;;;;;;;34.13;22.47;;;;;;;;;;4999091;28;20297;-39
2021/03/03 12:31:57;;;;;;;38.63;22.17;;;;;;;;;;4998810;28;20234;-39
2021/03/03 12:34:44;;;;;;;38.10;23.03;;;;;;;;;;4999348;28;20748;-40
2021/03/03 12:37:30;;;;;;;39.57;26.33;;;;;;;;;;4998566;28;20222;-36
2021/03/03 12:40:15;;;;;;;36.13;24.17;;;;;;;;;;4998963;28;20198;-39
2021/03/03 12:43:02;;;;;;;41.40;24.63;;;;;;;;;;4999202;28;20203;-41
2021/03/03 12:45:51;;;;;;;43.63;25.00;;;;;;;;;;5011477;28;20201;-37
2021/03/03 12:48:38;;;;;;;42.30;26.17;;;;;;;;;;5017530;28;20265;-39
2021/03/03 12:51:25;;;;;;;43.10;26.67;;;;;;;;;;5010585;28;20315;-39
2021/03/03 12:54:11;;;;;;;47.77;28.87;;;;;;;;;;5017905;28;20508;-37
2021/03/03 12:56:57;;;;;;;38.77;24.70;;;;;;;;;;5017675;28;20199;-38
2021/03/03 12:59:51;;;;;;;38.53;25.17;;;;;;;;;;5018017;28;20604;-40
2021/03/03 13:02:40;;;;;;;34.33;25.17;;;;;;;;;;5018381;28;20194;-38
2021/03/03 13:05:26;;;;;;;39.33;26.77;;;;;;;;;;5018029;28;20347;-40
2021/03/03 13:08:16;;;;;;;43.10;26.10;;;;;;;;;;5017827;28;20203;-38
2021/03/03 13:11:02;;;;;;;38.47;24.50;;;;;;;;;;5017342;28;20656;-40
2021/03/03 13:13:48;;;;;;;36.97;24.07;;;;;;;;;;5016182;28;20212;-38
2021/03/03 13:16:34;;;;;;;37.27;24.57;;;;;;;;;;5012470;28;20264;-39
2021/03/03 13:19:21;;;;;;;41.80;25.70;;;;;;;;;;5017781;28;20306;-38
2021/03/03 13:22:07;;;;;;;39.60;24.63;;;;;;;;;;5017268;28;20281;-38
2021/03/03 13:24:56;;;;;;;43.77;27.10;;;;;;;;;;5016932;28;20198;-37
2021/03/03 13:27:45;;;;;;;42.10;26.60;;;;;;;;;;5017659;28;20206;-40
2021/03/03 13:30:30;;;;;;;41.30;27.97;;;;;;;;;;5017002;28;20201;-37
2021/03/03 13:33:18;;;;;;;42.03;27.23;;;;;;;;;;5015258;28;20218;-40
2021/03/03 13:36:08;;;;;;;36.43;26.33;;;;;;;;;;5017347;28;20201;-38
2021/03/03 13:38:54;;;;;;;54.50;30.67;;;;;;;;;;4998061;28;20350;-40
2021/03/03 13:41:42;;;;;;;42.97;28.13;;;;;;;;;;4997739;28;20494;-41
2021/03/03 13:44:31;;;;;;;36.97;26.60;;;;;;;;;;5006884;28;20257;-40
2021/03/03 13:47:21;;;;;;;43.67;28.33;;;;;;;;;;5016510;28;20554;-40
2021/03/03 13:50:08;;;;;;;36.03;26.83;;;;;;;;;;4998170;28;20326;-37
2021/03/03 13:52:57;;;;;;;39.97;25.93;;;;;;;;;;4995836;28;20230;-41
2021/03/03 13:55:42;;;;;;;38.47;25.53;;;;;;;;;;4997665;28;20345;-33
2021/03/03 13:58:31;;;;;;;42.50;28.30;;;;;;;;;;4997228;28;20212;-39
2021/03/03 14:01:17;;;;;;;39.90;26.37;;;;;;;;;;4995699;28;20238;-36
2021/03/03 14:04:03;;;;;;;44.63;26.77;;;;;;;;;;4996576;28;20200;-34
2021/03/03 14:06:49;;;;;;;36.13;25.13;;;;;;;;;;5013414;28;20486;-36
2021/03/03 14:09:36;;;;;;;44.30;28.30;;;;;;;;;;5004620;28;20215;-34
2021/03/03 14:12:22;;;;;;;42.80;27.43;;;;;;;;;;4996732;28;20309;-35
2021/03/03 14:15:12;;;;;;;43.40;26.67;;;;;;;;;;4996781;28;20206;-38
2021/03/03 14:17:58;;;;;;;42.10;28.37;;;;;;;;;;4995974;28;20755;-37
2021/03/03 14:20:44;;;;;;;40.30;28.07;;;;;;;;;;4995806;28;20350;-35
2021/03/03 14:23:34;;;;;;;39.73;28.37;;;;;;;;;;4996387;28;20199;-34
2021/03/03 14:26:23;;;;;;;47.13;28.93;;;;;;;;;;4996879;28;20206;-37
2021/03/03 14:29:08;;;;;;;41.47;28.00;;;;;;;;;;4996502;28;20507;-39
2021/03/03 14:31:55;;;;;;;43.17;28.50;;;;;;;;;;4996174;28;20226;-38
2021/03/03 14:34:43;;;;;;;37.27;27.57;;;;;;;;;;4999884;28;20218;-34
2021/03/03 14:37:29;;;;;;;37.10;26.67;;;;;;;;;;5012768;28;20207;-37
2021/03/03 14:40:17;;;;;;;41.93;28.43;;;;;;;;;;5022912;28;20282;-40
2021/03/03 14:43:03;;;;;;;43.07;27.50;;;;;;;;;;5022998;28;20261;-39
2021/03/03 14:45:49;;;;;;;49.33;32.70;;;;;;;;;;5023288;28;20197;-39
2021/03/03 14:48:36;;;;;;;45.73;30.60;;;;;;;;;;5023203;28;20289;-38
2021/03/03 14:51:23;;;;;;;47.63;31.77;;;;;;;;;;5023279;28;20704;-36
2021/03/03 14:54:13;;;;;;;49.40;31.83;;;;;;;;;;5015996;28;20265;-37
2021/03/03 14:57:10;;;;;;;51.70;31.70;;;;;;;;;;5022499;28;20322;-40
2021/03/03 15:00:02;;;;;;;48.37;31.20;;;;;;;;;;5022786;28;20608;-38
2021/03/03 15:02:52;;;;;;;50.90;33.57;;;;;;;;;;5022818;28;20225;-36
2021/03/03 15:05:45;;;;;;;45.53;31.93;;;;;;;;;;5007687;28;20213;-35
2021/03/03 15:08:31;;;;;;;50.17;33.37;;;;;;;;;;5022276;28;20311;-37
2021/03/03 15:11:17;;;;;;;46.97;32.47;;;;;;;;;;5022775;28;20208;-35
2021/03/03 15:14:02;;;;;;;49.53;33.83;;;;;;;;;;4983468;28;20206;-37
2021/03/03 15:16:50;;;;;;;51.67;34.67;;;;;;;;;;4983444;28;20304;-38
2021/03/03 15:19:39;;;;;;;54.37;33.87;;;;;;;;;;4982178;28;20411;-36
2021/03/03 15:22:27;;;;;;;53.17;34.47;;;;;;;;;;4982610;28;20205;-39
2021/03/03 15:25:15;;;;;;;50.63;32.20;;;;;;;;;;4983062;28;20233;-33
2021/03/03 15:28:01;;;;;;;49.13;32.33;;;;;;;;;;4976944;28;20216;-37
2021/03/03 15:30:48;;;;;;;48.53;33.00;;;;;;;;;;4983083;28;20363;-36
2021/03/03 15:33:35;;;;;;;51.00;34.33;;;;;;;;;;4982549;28;20227;-37
2021/03/03 15:36:24;;;;;;;55.57;36.87;;;;;;;;;;4983508;28;20362;-36
2021/03/03 15:39:11;;;;;;;57.30;37.03;;;;;;;;;;4982446;28;20203;-38
2021/03/03 15:41:57;;;;;;;53.30;35.90;;;;;;;;;;4982944;28;20202;-36
2021/03/03 15:44:43;;;;;;;49.50;35.27;;;;;;;;;;4983137;28;20203;-33
2021/03/03 15:47:30;;;;;;;50.40;35.07;;;;;;;;;;4981327;28;20304;-39
2021/03/03 15:50:16;;;;;;;53.97;35.17;;;;;;;;;;4980059;28;20208;-37
2021/03/03 15:53:03;;;;;;;54.67;34.70;;;;;;;;;;4979758;28;20295;-38
2021/03/03 15:55:50;;;;;;;55.37;34.13;;;;;;;;;;4979862;28;20207;-36
2021/03/03 15:58:36;;;;;;;53.07;33.23;;;;;;;;;;4978262;28;20275;-37
2021/03/03 16:01:25;;;;;;;49.20;35.37;;;;;;;;;;4979573;28;20204;-39
2021/03/03 16:04:11;;;;;;;84.00;52.37;;;;;;;;;;4979984;28;20264;-40
2021/03/03 16:06:58;;;;;;;57.77;36.50;;;;;;;;;;4980010;28;20204;-41
2021/03/03 16:09:45;;;;;;;54.47;33.80;;;;;;;;;;4980218;28;20212;-38
2021/03/03 16:12:32;;;;;;;60.53;40.50;;;;;;;;;;4998927;28;20369;-39
2021/03/03 16:15:19;;;;;;;58.07;37.03;;;;;;;;;;5015894;28;20207;-38
2021/03/03 16:18:05;;;;;;;57.73;37.27;;;;;;;;;;5011832;28;20265;-36
2021/03/03 16:20:54;;;;;;;61.63;35.17;;;;;;;;;;5018761;28;20202;-35
2021/03/03 16:23:40;;;;;;;50.53;33.73;;;;;;;;;;5018852;28;20272;-35